sensor_id;sensor_type;location;lat;lon;timestamp;pressure;altitude;pressure_sealevel;temperature;humidity
35291;BME280;21411;50.024;19.220;2023-11-22T00:02:16;99120.34;;;0.74;100.00
35291;BME280;21411;50.024;19.220;2023-11-22T00:04:44;99122.14;;;0.73;100.00
35291;BME280;21411;50.024;19.220;2023-11-22T00:07:10;99123.24;;;0.71;100.00
35291;BME280;21411;50.024;19.220;2023-11-22T00:09:37;99127.61;;;0.71;100.00
35291;BME280;21411;50.024;19.220;2023-11-22T00:12:04;99134.23;;;0.72;100.00
35291;BME280;21411;50.024;19.220;2023-11-22T00:14:31;99140.70;;;0.72;100.00
35291;BME280;21411;50.024;19.220;2023-11-22T00:16:58;99141.45;;;0.70;100.00
35291;BME280;21411;50.024;19.220;2023-11-22T00:19:25;99147.09;;;0.68;100.00
35291;BME280;21411;50.024;19.220;2023-11-22T00:21:51;99150.27;;;0.67;100.00
35291;BME280;21411;50.024;19.220;2023-11-22T00:24:18;99158.03;;;0.63;100.00
35291;BME280;21411;50.024;19.220;2023-11-22T00:26:45;99163.34;;;0.61;100.00
35291;BME280;21411;50.024;19.220;2023-11-22T00:29:12;99170.35;;;0.60;100.00
35291;BME280;21411;50.024;19.220;2023-11-22T00:31:38;99173.89;;;0.58;100.00
35291;BME280;21411;50.024;19.220;2023-11-22T00:34:06;99173.43;;;0.56;100.00
35291;BME280;21411;50.024;19.220;2023-11-22T00:36:33;99178.70;;;0.55;100.00
35291;BME280;21411;50.024;19.220;2023-11-22T00:39:00;99181.88;;;0.54;100.00
35291;BME280;21411;50.024;19.220;2023-11-22T00:41:31;99182.09;;;0.52;100.00
35291;BME280;21411;50.024;19.220;2023-11-22T00:43:58;99183.65;;;0.52;100.00
35291;BME280;21411;50.024;19.220;2023-11-22T00:46:24;99180.34;;;0.53;100.00
35291;BME280;21411;50.024;19.220;2023-11-22T00:48:51;99174.20;;;0.53;100.00
35291;BME280;21411;50.024;19.220;2023-11-22T00:51:18;99173.34;;;0.53;100.00
35291;BME280;21411;50.024;19.220;2023-11-22T00:53:46;99172.80;;;0.53;100.00
35291;BME280;21411;50.024;19.220;2023-11-22T00:56:13;99177.55;;;0.52;100.00
35291;BME280;21411;50.024;19.220;2023-11-22T00:58:39;99185.95;;;0.52;100.00
35291;BME280;21411;50.024;19.220;2023-11-22T01:01:06;99182.91;;;0.54;100.00
35291;BME280;21411;50.024;19.220;2023-11-22T01:03:33;99187.52;;;0.51;100.00
35291;BME280;21411;50.024;19.220;2023-11-22T01:06:00;99195.48;;;0.47;100.00
35291;BME280;21411;50.024;19.220;2023-11-22T01:08:27;99195.52;;;0.46;100.00
35291;BME280;21411;50.024;19.220;2023-11-22T01:10:53;99202.00;;;0.46;100.00
35291;BME280;21411;50.024;19.220;2023-11-22T01:13:20;99204.09;;;0.45;100.00
35291;BME280;21411;50.024;19.220;2023-11-22T01:15:48;99206.72;;;0.44;100.00
35291;BME280;21411;50.024;19.220;2023-11-22T01:18:15;99207.79;;;0.43;100.00
35291;BME280;21411;50.024;19.220;2023-11-22T01:20:41;99208.14;;;0.44;100.00
35291;BME280;21411;50.024;19.220;2023-11-22T01:23:08;99210.08;;;0.43;100.00
35291;BME280;21411;50.024;19.220;2023-11-22T01:25:35;99210.79;;;0.43;100.00
35291;BME280;21411;50.024;19.220;2023-11-22T01:28:01;99210.09;;;0.42;100.00
35291;BME280;21411;50.024;19.220;2023-11-22T01:30:28;99209.52;;;0.44;100.00
35291;BME280;21411;50.024;19.220;2023-11-22T01:32:55;99211.13;;;0.43;100.00
35291;BME280;21411;50.024;19.220;2023-11-22T01:35:21;99209.05;;;0.42;100.00
35291;BME280;21411;50.024;19.220;2023-11-22T01:37:48;99214.28;;;0.43;100.00
35291;BME280;21411;50.024;19.220;2023-11-22T01:40:15;99214.29;;;0.42;100.00
35291;BME280;21411;50.024;19.220;2023-11-22T01:42:42;99217.64;;;0.41;100.00
35291;BME280;21411;50.024;19.220;2023-11-22T01:45:09;99217.85;;;0.39;100.00
35291;BME280;21411;50.024;19.220;2023-11-22T01:47:36;99218.05;;;0.38;100.00
35291;BME280;21411;50.024;19.220;2023-11-22T01:50:06;99221.44;;;0.35;100.00
35291;BME280;21411;50.024;19.220;2023-11-22T01:52:33;99222.90;;;0.33;100.00
35291;BME280;21411;50.024;19.220;2023-11-22T01:55:01;99226.95;;;0.31;100.00
35291;BME280;21411;50.024;19.220;2023-11-22T01:57:34;99228.59;;;0.28;100.00
35291;BME280;21411;50.024;19.220;2023-11-22T02:00:02;99229.73;;;0.24;100.00
35291;BME280;21411;50.024;19.220;2023-11-22T02:02:30;99229.95;;;0.21;100.00
35291;BME280;21411;50.024;19.220;2023-11-22T02:04:57;99237.34;;;0.19;100.00
35291;BME280;21411;50.024;19.220;2023-11-22T02:07:27;99238.59;;;0.17;100.00
35291;BME280;21411;50.024;19.220;2023-11-22T02:09:53;99239.16;;;0.16;100.00
35291;BME280;21411;50.024;19.220;2023-11-22T02:12:20;99241.45;;;0.15;100.00
35291;BME280;21411;50.024;19.220;2023-11-22T02:14:47;99242.50;;;0.14;100.00
35291;BME280;21411;50.024;19.220;2023-11-22T02:17:14;99244.27;;;0.14;100.00
35291;BME280;21411;50.024;19.220;2023-11-22T02:19:41;99248.67;;;0.12;100.00
35291;BME280;21411;50.024;19.220;2023-11-22T02:22:07;99248.51;;;0.12;100.00
35291;BME280;21411;50.024;19.220;2023-11-22T02:24:34;99250.23;;;0.12;100.00
35291;BME280;21411;50.024;19.220;2023-11-22T02:27:00;99256.13;;;0.14;100.00
35291;BME280;21411;50.024;19.220;2023-11-22T02:29:27;99257.15;;;0.15;100.00
35291;BME280;21411;50.024;19.220;2023-11-22T02:31:54;99255.08;;;0.15;100.00
35291;BME280;21411;50.024;19.220;2023-11-22T02:34:21;99259.46;;;0.14;100.00
35291;BME280;21411;50.024;19.220;2023-11-22T02:36:47;99256.16;;;0.13;100.00
35291;BME280;21411;50.024;19.220;2023-11-22T02:39:15;99261.26;;;0.11;100.00
35291;BME280;21411;50.024;19.220;2023-11-22T02:41:42;99265.81;;;0.11;100.00
35291;BME280;21411;50.024;19.220;2023-11-22T02:44:09;99268.41;;;0.12;100.00
35291;BME280;21411;50.024;19.220;2023-11-22T02:46:36;99273.30;;;0.12;100.00
35291;BME280;21411;50.024;19.220;2023-11-22T02:49:02;99271.55;;;0.12;100.00
35291;BME280;21411;50.024;19.220;2023-11-22T02:51:30;99272.23;;;0.13;100.00
35291;BME280;21411;50.024;19.220;2023-11-22T02:53:57;99275.39;;;0.13;100.00
35291;BME280;21411;50.024;19.220;2023-11-22T02:56:23;99282.05;;;0.11;100.00
35291;BME280;21411;50.024;19.220;2023-11-22T02:58:50;99286.27;;;0.11;100.00
35291;BME280;21411;50.024;19.220;2023-11-22T03:01:17;99289.37;;;0.12;100.00
35291;BME280;21411;50.024;19.220;2023-11-22T03:03:44;99291.45;;;0.13;100.00
35291;BME280;21411;50.024;19.220;2023-11-22T03:06:10;99295.29;;;0.13;100.00
35291;BME280;21411;50.024;19.220;2023-11-22T03:08:37;99297.18;;;0.14;100.00
35291;BME280;21411;50.024;19.220;2023-11-22T03:11:04;99301.23;;;0.14;100.00
35291;BME280;21411;50.024;19.220;2023-11-22T03:13:30;99305.80;;;0.12;100.00
35291;BME280;21411;50.024;19.220;2023-11-22T03:15:57;99315.56;;;0.13;100.00
35291;BME280;21411;50.024;19.220;2023-11-22T03:18:24;99323.59;;;0.13;100.00
35291;BME280;21411;50.024;19.220;2023-11-22T03:20:50;99327.79;;;0.13;100.00
35291;BME280;21411;50.024;19.220;2023-11-22T03:23:20;99326.95;;;0.12;100.00
35291;BME280;21411;50.024;19.220;2023-11-22T03:25:47;99326.44;;;0.11;100.00
35291;BME280;21411;50.024;19.220;2023-11-22T03:28:14;99329.58;;;0.11;100.00
35291;BME280;21411;50.024;19.220;2023-11-22T03:30:41;99335.30;;;0.12;100.00
35291;BME280;21411;50.024;19.220;2023-11-22T03:33:08;99345.27;;;0.12;100.00
35291;BME280;21411;50.024;19.220;2023-11-22T03:35:35;99352.44;;;0.13;100.00
35291;BME280;21411;50.024;19.220;2023-11-22T03:38:02;99355.98;;;0.10;100.00
35291;BME280;21411;50.024;19.220;2023-11-22T03:40:29;99358.83;;;0.07;100.00
35291;BME280;21411;50.024;19.220;2023-11-22T03:42:55;99361.63;;;0.06;100.00
35291;BME280;21411;50.024;19.220;2023-11-22T03:45:22;99368.97;;;0.06;100.00
35291;BME280;21411;50.024;19.220;2023-11-22T03:47:48;99371.02;;;0.08;100.00
35291;BME280;21411;50.024;19.220;2023-11-22T03:50:15;99377.68;;;0.07;100.00
35291;BME280;21411;50.024;19.220;2023-11-22T03:52:42;99379.48;;;0.05;100.00
35291;BME280;21411;50.024;19.220;2023-11-22T03:55:09;99387.55;;;0.03;100.00
35291;BME280;21411;50.024;19.220;2023-11-22T03:57:36;99389.48;;;0.02;100.00
35291;BME280;21411;50.024;19.220;2023-11-22T04:00:03;99393.35;;;0.01;100.00
35291;BME280;21411;50.024;19.220;2023-11-22T04:02:32;99395.81;;;0.00;100.00
35291;BME280;21411;50.024;19.220;2023-11-22T04:04:59;99399.66;;;-0.01;100.00
35291;BME280;21411;50.024;19.220;2023-11-22T04:07:26;99398.61;;;-0.01;100.00
35291;BME280;21411;50.024;19.220;2023-11-22T04:09:52;99399.66;;;-0.01;100.00
35291;BME280;21411;50.024;19.220;2023-11-22T04:12:20;99405.09;;;-0.02;100.00
35291;BME280;21411;50.024;19.220;2023-11-22T04:14:46;99416.48;;;-0.03;100.00
35291;BME280;21411;50.024;19.220;2023-11-22T04:17:13;99416.48;;;-0.04;100.00
35291;BME280;21411;50.024;19.220;2023-11-22T04:19:39;99421.35;;;-0.03;100.00
35291;BME280;21411;50.024;19.220;2023-11-22T04:22:06;99425.70;;;-0.01;100.00
35291;BME280;21411;50.024;19.220;2023-11-22T04:24:33;99433.74;;;-0.02;100.00
35291;BME280;21411;50.024;19.220;2023-11-22T04:27:00;99441.70;;;-0.07;100.00
35291;BME280;21411;50.024;19.220;2023-11-22T04:29:26;99447.13;;;-0.09;100.00
35291;BME280;21411;50.024;19.220;2023-11-22T04:31:53;99451.87;;;-0.10;100.00
35291;BME280;21411;50.024;19.220;2023-11-22T04:34:19;99457.31;;;-0.12;100.00
35291;BME280;21411;50.024;19.220;2023-11-22T04:36:46;99461.54;;;-0.14;100.00
35291;BME280;21411;50.024;19.220;2023-11-22T04:39:13;99467.52;;;-0.17;100.00
35291;BME280;21411;50.024;19.220;2023-11-22T04:41:40;99476.95;;;-0.17;100.00
35291;BME280;21411;50.024;19.220;2023-11-22T04:44:06;99487.06;;;-0.16;100.00
35291;BME280;21411;50.024;19.220;2023-11-22T04:46:33;99495.59;;;-0.14;100.00
35291;BME280;21411;50.024;19.220;2023-11-22T04:49:00;99495.61;;;-0.15;100.00
35291;BME280;21411;50.024;19.220;2023-11-22T04:51:27;99495.14;;;-0.18;100.00
35291;BME280;21411;50.024;19.220;2023-11-22T04:53:55;99500.23;;;-0.21;100.00
35291;BME280;21411;50.024;19.220;2023-11-22T04:56:22;99506.73;;;-0.23;100.00
35291;BME280;21411;50.024;19.220;2023-11-22T04:58:49;99511.84;;;-0.25;100.00
35291;BME280;21411;50.024;19.220;2023-11-22T05:01:16;99516.24;;;-0.28;100.00
35291;BME280;21411;50.024;19.220;2023-11-22T05:03:42;99521.48;;;-0.29;100.00
35291;BME280;21411;50.024;19.220;2023-11-22T05:06:09;99531.08;;;-0.29;100.00
35291;BME280;21411;50.024;19.220;2023-11-22T05:08:36;99536.14;;;-0.28;100.00
35291;BME280;21411;50.024;19.220;2023-11-22T05:11:03;99544.52;;;-0.28;100.00
35291;BME280;21411;50.024;19.220;2023-11-22T05:13:31;99549.24;;;-0.28;100.00
35291;BME280;21411;50.024;19.220;2023-11-22T05:15:57;99549.59;;;-0.28;100.00
35291;BME280;21411;50.024;19.220;2023-11-22T05:18:24;99553.25;;;-0.28;100.00
35291;BME280;21411;50.024;19.220;2023-11-22T05:20:51;99553.44;;;-0.29;100.00
35291;BME280;21411;50.024;19.220;2023-11-22T05:23:18;99556.23;;;-0.28;100.00
35291;BME280;21411;50.024;19.220;2023-11-22T05:25:45;99557.10;;;-0.28;100.00
35291;BME280;21411;50.024;19.220;2023-11-22T05:28:11;99559.73;;;-0.29;100.00
35291;BME280;21411;50.024;19.220;2023-11-22T05:30:38;99561.99;;;-0.29;100.00
35291;BME280;21411;50.024;19.220;2023-11-22T05:33:05;99558.85;;;-0.30;100.00
35291;BME280;21411;50.024;19.220;2023-11-22T05:35:31;99555.02;;;-0.29;100.00
35291;BME280;21411;50.024;19.220;2023-11-22T05:37:58;99557.10;;;-0.28;100.00
35291;BME280;21411;50.024;19.220;2023-11-22T05:40:25;99564.09;;;-0.29;100.00
35291;BME280;21411;50.024;19.220;2023-11-22T05:42:51;99562.17;;;-0.30;100.00
35291;BME280;21411;50.024;19.220;2023-11-22T05:45:18;99564.98;;;-0.31;100.00
35291;BME280;21411;50.024;19.220;2023-11-22T05:47:45;99568.67;;;-0.33;100.00
35291;BME280;21411;50.024;19.220;2023-11-22T05:50:11;99567.48;;;-0.34;100.00
35291;BME280;21411;50.024;19.220;2023-11-22T05:52:38;99567.13;;;-0.34;100.00
35291;BME280;21411;50.024;19.220;2023-11-22T05:55:06;99567.30;;;-0.35;100.00
35291;BME280;21411;50.024;19.220;2023-11-22T05:57:34;99574.63;;;-0.34;100.00
35291;BME280;21411;50.024;19.220;2023-11-22T06:00:02;99577.06;;;-0.33;100.00
35291;BME280;21411;50.024;19.220;2023-11-22T06:02:29;99580.33;;;-0.29;100.00
35291;BME280;21411;50.024;19.220;2023-11-22T06:04:55;99582.38;;;-0.27;100.00
35291;BME280;21411;50.024;19.220;2023-11-22T06:07:22;99582.04;;;-0.27;100.00
35291;BME280;21411;50.024;19.220;2023-11-22T06:09:49;99583.64;;;-0.29;100.00
35291;BME280;21411;50.024;19.220;2023-11-22T06:12:15;99592.02;;;-0.30;100.00
35291;BME280;21411;50.024;19.220;2023-11-22T06:14:42;99603.90;;;-0.29;100.00
35291;BME280;21411;50.024;19.220;2023-11-22T06:17:09;99615.95;;;-0.30;100.00
35291;BME280;21411;50.024;19.220;2023-11-22T06:19:37;99623.64;;;-0.30;100.00
35291;BME280;21411;50.024;19.220;2023-11-22T06:22:04;99627.66;;;-0.31;100.00
35291;BME280;21411;50.024;19.220;2023-11-22T06:24:30;99630.83;;;-0.32;100.00
35291;BME280;21411;50.024;19.220;2023-11-22T06:26:59;99636.45;;;-0.35;100.00
35291;BME280;21411;50.024;19.220;2023-11-22T06:29:26;99635.95;;;-0.36;100.00
35291;BME280;21411;50.024;19.220;2023-11-22T06:31:53;99635.09;;;-0.38;100.00
35291;BME280;21411;50.024;19.220;2023-11-22T06:34:20;99639.13;;;-0.39;100.00
35291;BME280;21411;50.024;19.220;2023-11-22T06:36:46;99642.44;;;-0.40;100.00
35291;BME280;21411;50.024;19.220;2023-11-22T06:39:13;99651.04;;;-0.43;100.00
35291;BME280;21411;50.024;19.220;2023-11-22T06:41:41;99656.13;;;-0.46;100.00
35291;BME280;21411;50.024;19.220;2023-11-22T06:44:08;99652.30;;;-0.48;100.00
35291;BME280;21411;50.024;19.220;2023-11-22T06:46:35;99652.84;;;-0.48;100.00
35291;BME280;21411;50.024;19.220;2023-11-22T06:49:02;99657.19;;;-0.47;100.00
35291;BME280;21411;50.024;19.220;2023-11-22T06:51:29;99656.48;;;-0.47;100.00
35291;BME280;21411;50.024;19.220;2023-11-22T06:53:56;99655.11;;;-0.48;100.00
35291;BME280;21411;50.024;19.220;2023-11-22T06:56:23;99653.21;;;-0.51;100.00
35291;BME280;21411;50.024;19.220;2023-11-22T06:58:49;99657.90;;;-0.48;100.00
35291;BME280;21411;50.024;19.220;2023-11-22T07:01:17;99664.86;;;-0.47;100.00
35291;BME280;21411;50.024;19.220;2023-11-22T07:03:45;99662.95;;;-0.47;100.00
35291;BME280;21411;50.024;19.220;2023-11-22T07:06:12;99667.66;;;-0.47;100.00
35291;BME280;21411;50.024;19.220;2023-11-22T07:08:39;99668.35;;;-0.46;100.00
35291;BME280;21411;50.024;19.220;2023-11-22T07:11:05;99672.39;;;-0.49;100.00
35291;BME280;21411;50.024;19.220;2023-11-22T07:13:36;99684.27;;;-0.49;100.00
35291;BME280;21411;50.024;19.220;2023-11-22T07:16:05;99690.23;;;-0.52;100.00
35291;BME280;21411;50.024;19.220;2023-11-22T07:18:33;99694.45;;;-0.55;100.00
35291;BME280;21411;50.024;19.220;2023-11-22T07:21:00;99694.84;;;-0.59;100.00
35291;BME280;21411;50.024;19.220;2023-11-22T07:23:26;99697.13;;;-0.61;100.00
35291;BME280;21411;50.024;19.220;2023-11-22T07:25:55;99699.23;;;-0.61;100.00
35291;BME280;21411;50.024;19.220;2023-11-22T07:28:22;99696.97;;;-0.62;100.00
35291;BME280;21411;50.024;19.220;2023-11-22T07:30:49;99699.95;;;-0.63;100.00
35291;BME280;21411;50.024;19.220;2023-11-22T07:33:15;99710.77;;;-0.62;100.00
35291;BME280;21411;50.024;19.220;2023-11-22T07:35:42;99714.22;;;-0.59;100.00
35291;BME280;21411;50.024;19.220;2023-11-22T07:38:09;99711.41;;;-0.58;100.00
35291;BME280;21411;50.024;19.220;2023-11-22T07:40:37;99710.02;;;-0.58;100.00
35291;BME280;21411;50.024;19.220;2023-11-22T07:43:04;99708.61;;;-0.57;100.00
35291;BME280;21411;50.024;19.220;2023-11-22T07:45:31;99707.02;;;-0.56;100.00
35291;BME280;21411;50.024;19.220;2023-11-22T07:48:00;99717.48;;;-0.54;100.00
35291;BME280;21411;50.024;19.220;2023-11-22T07:50:27;99729.02;;;-0.55;100.00
35291;BME280;21411;50.024;19.220;2023-11-22T07:52:54;99734.25;;;-0.56;100.00
35291;BME280;21411;50.024;19.220;2023-11-22T07:55:21;99733.04;;;-0.56;100.00
35291;BME280;21411;50.024;19.220;2023-11-22T07:57:48;99729.53;;;-0.56;100.00
35291;BME280;21411;50.024;19.220;2023-11-22T08:00:17;99735.48;;;-0.57;100.00
35291;BME280;21411;50.024;19.220;2023-11-22T08:02:46;99738.11;;;-0.57;100.00
35291;BME280;21411;50.024;19.220;2023-11-22T08:05:12;99737.07;;;-0.58;100.00
35291;BME280;21411;50.024;19.220;2023-11-22T08:07:42;99735.86;;;-0.59;100.00
35291;BME280;21411;50.024;19.220;2023-11-22T08:10:10;99744.09;;;-0.62;100.00
35291;BME280;21411;50.024;19.220;2023-11-22T08:12:46;99748.30;;;-0.66;100.00
35291;BME280;21411;50.024;19.220;2023-11-22T08:15:14;99751.81;;;-0.68;100.00
35291;BME280;21411;50.024;19.220;2023-11-22T08:17:42;99753.04;;;-0.68;100.00
35291;BME280;21411;50.024;19.220;2023-11-22T08:20:09;99750.58;;;-0.66;100.00
35291;BME280;21411;50.024;19.220;2023-11-22T08:22:39;99755.77;;;-0.61;100.00
35291;BME280;21411;50.024;19.220;2023-11-22T08:25:08;99758.01;;;-0.57;100.00
35291;BME280;21411;50.024;19.220;2023-11-22T08:27:35;99758.86;;;-0.56;100.00
35291;BME280;21411;50.024;19.220;2023-11-22T08:30:01;99763.41;;;-0.56;100.00
35291;BME280;21411;50.024;19.220;2023-11-22T08:32:31;99765.70;;;-0.58;100.00
35291;BME280;21411;50.024;19.220;2023-11-22T08:34:58;99776.88;;;-0.60;100.00
35291;BME280;21411;50.024;19.220;2023-11-22T08:37:24;99785.06;;;-0.59;100.00
35291;BME280;21411;50.024;19.220;2023-11-22T08:39:51;99789.59;;;-0.58;100.00
35291;BME280;21411;50.024;19.220;2023-11-22T08:42:18;99795.02;;;-0.60;100.00
35291;BME280;21411;50.024;19.220;2023-11-22T08:44:44;99793.83;;;-0.62;100.00
35291;BME280;21411;50.024;19.220;2023-11-22T08:47:11;99791.20;;;-0.61;100.00
35291;BME280;21411;50.024;19.220;2023-11-22T08:49:39;99790.46;;;-0.57;100.00
35291;BME280;21411;50.024;19.220;2023-11-22T08:52:08;99788.34;;;-0.52;100.00
35291;BME280;21411;50.024;19.220;2023-11-22T08:54:34;99793.35;;;-0.48;100.00
35291;BME280;21411;50.024;19.220;2023-11-22T08:57:01;99790.17;;;-0.46;100.00
35291;BME280;21411;50.024;19.220;2023-11-22T08:59:28;99789.64;;;-0.44;100.00
35291;BME280;21411;50.024;19.220;2023-11-22T09:01:55;99787.70;;;-0.41;100.00
35291;BME280;21411;50.024;19.220;2023-11-22T09:04:22;99783.16;;;-0.42;100.00
35291;BME280;21411;50.024;19.220;2023-11-22T09:06:50;99784.23;;;-0.44;100.00
35291;BME280;21411;50.024;19.220;2023-11-22T09:09:17;99789.11;;;-0.43;100.00
35291;BME280;21411;50.024;19.220;2023-11-22T09:11:44;99796.30;;;-0.44;100.00
35291;BME280;21411;50.024;19.220;2023-11-22T09:14:10;99803.60;;;-0.43;100.00
35291;BME280;21411;50.024;19.220;2023-11-22T09:16:37;99797.64;;;-0.40;100.00
35291;BME280;21411;50.024;19.220;2023-11-22T09:19:05;99803.90;;;-0.37;100.00
35291;BME280;21411;50.024;19.220;2023-11-22T09:21:34;99810.51;;;-0.34;100.00
35291;BME280;21411;50.024;19.220;2023-11-22T09:24:01;99814.67;;;-0.33;100.00
35291;BME280;21411;50.024;19.220;2023-11-22T09:26:28;99813.28;;;-0.33;100.00
35291;BME280;21411;50.024;19.220;2023-11-22T09:28:55;99811.88;;;-0.33;100.00
35291;BME280;21411;50.024;19.220;2023-11-22T09:31:22;99812.02;;;-0.30;100.00
35291;BME280;21411;50.024;19.220;2023-11-22T09:33:50;99817.23;;;-0.27;100.00
35291;BME280;21411;50.024;19.220;2023-11-22T09:36:16;99823.16;;;-0.26;100.00
35291;BME280;21411;50.024;19.220;2023-11-22T09:38:44;99829.43;;;-0.23;100.00
35291;BME280;21411;50.024;19.220;2023-11-22T09:41:11;99830.29;;;-0.22;100.00
35291;BME280;21411;50.024;19.220;2023-11-22T09:43:38;99828.54;;;-0.22;100.00
35291;BME280;21411;50.024;19.220;2023-11-22T09:46:06;99824.19;;;-0.22;100.00
35291;BME280;21411;50.024;19.220;2023-11-22T09:48:39;99828.73;;;-0.24;100.00
35291;BME280;21411;50.024;19.220;2023-11-22T09:51:21;99830.81;;;-0.23;100.00
35291;BME280;21411;50.024;19.220;2023-11-22T09:56:20;99832.19;;;-0.18;100.00
35291;BME280;21411;50.024;19.220;2023-11-22T09:58:49;99839.13;;;-0.16;100.00
35291;BME280;21411;50.024;19.220;2023-11-22T10:01:18;99841.40;;;-0.16;100.00
35291;BME280;21411;50.024;19.220;2023-11-22T10:03:44;99847.52;;;-0.16;100.00
35291;BME280;21411;50.024;19.220;2023-11-22T10:06:11;99853.27;;;-0.14;100.00
35291;BME280;21411;50.024;19.220;2023-11-22T10:08:38;99853.95;;;-0.14;100.00
35291;BME280;21411;50.024;19.220;2023-11-22T10:11:05;99855.16;;;-0.13;100.00
35291;BME280;21411;50.024;19.220;2023-11-22T10:13:32;99864.23;;;-0.10;100.00
35291;BME280;21411;50.024;19.220;2023-11-22T10:16:13;99875.73;;;-0.07;100.00
35291;BME280;21411;50.024;19.220;2023-11-22T10:18:42;99877.46;;;-0.05;100.00
35291;BME280;21411;50.024;19.220;2023-11-22T10:21:23;99870.27;;;-0.03;100.00
35291;BME280;21411;50.024;19.220;2023-11-22T10:23:55;99875.30;;;0.01;100.00
35291;BME280;21411;50.024;19.220;2023-11-22T10:26:23;99873.69;;;0.06;100.00
35291;BME280;21411;50.024;19.220;2023-11-22T10:28:51;99870.83;;;0.12;100.00
35291;BME280;21411;50.024;19.220;2023-11-22T10:31:19;99870.06;;;0.17;100.00
35291;BME280;21411;50.024;19.220;2023-11-22T10:33:48;99866.88;;;0.20;100.00
35291;BME280;21411;50.024;19.220;2023-11-22T10:36:15;99863.20;;;0.21;100.00
35291;BME280;21411;50.024;19.220;2023-11-22T10:38:45;99861.42;;;0.24;100.00
35291;BME280;21411;50.024;19.220;2023-11-22T10:41:12;99855.44;;;0.28;100.00
35291;BME280;21411;50.024;19.220;2023-11-22T10:43:40;99849.12;;;0.31;100.00
35291;BME280;21411;50.024;19.220;2023-11-22T10:46:08;99849.09;;;0.34;100.00
35291;BME280;21411;50.024;19.220;2023-11-22T10:48:39;99844.70;;;0.35;100.00
35291;BME280;21411;50.024;19.220;2023-11-22T10:51:06;99846.61;;;0.36;100.00
35291;BME280;21411;50.024;19.220;2023-11-22T10:53:37;99851.15;;;0.36;100.00
35291;BME280;21411;50.024;19.220;2023-11-22T10:56:19;99850.61;;;0.37;100.00
35291;BME280;21411;50.024;19.220;2023-11-22T10:58:47;99852.02;;;0.37;100.00
35291;BME280;21411;50.024;19.220;2023-11-22T11:01:18;99849.91;;;0.38;100.00
35291;BME280;21411;50.024;19.220;2023-11-22T11:03:55;99853.94;;;0.37;100.00
35291;BME280;21411;50.024;19.220;2023-11-22T11:06:26;99861.61;;;0.38;100.00
35291;BME280;21411;50.024;19.220;2023-11-22T11:09:01;99864.23;;;0.38;100.00
35291;BME280;21411;50.024;19.220;2023-11-22T11:11:35;99856.91;;;0.38;100.00
35291;BME280;21411;50.024;19.220;2023-11-22T11:14:03;99858.98;;;0.40;100.00
35291;BME280;21411;50.024;19.220;2023-11-22T11:16:34;99859.86;;;0.39;100.00
35291;BME280;21411;50.024;19.220;2023-11-22T11:19:04;99856.26;;;0.33;100.00
35291;BME280;21411;50.024;19.220;2023-11-22T11:21:32;99851.08;;;0.27;100.00
35291;BME280;21411;50.024;19.220;2023-11-22T11:23:59;99856.31;;;0.29;100.00
35291;BME280;21411;50.024;19.220;2023-11-22T11:26:32;99864.00;;;0.29;100.00
35291;BME280;21411;50.024;19.220;2023-11-22T11:29:01;99865.57;;;0.29;100.00
35291;BME280;21411;50.024;19.220;2023-11-22T11:31:32;99865.23;;;0.28;100.00
35291;BME280;21411;50.024;19.220;2023-11-22T11:34:06;99869.45;;;0.26;100.00
35291;BME280;21411;50.024;19.220;2023-11-22T11:36:33;99874.04;;;0.21;100.00
35291;BME280;21411;50.024;19.220;2023-11-22T11:39:05;99882.52;;;0.13;100.00
35291;BME280;21411;50.024;19.220;2023-11-22T11:41:35;99893.77;;;0.06;100.00
35291;BME280;21411;50.024;19.220;2023-11-22T11:44:08;99898.17;;;0.02;100.00
35291;BME280;21411;50.024;19.220;2023-11-22T11:46:39;99895.25;;;-0.02;100.00
35291;BME280;21411;50.024;19.220;2023-11-22T11:49:07;99900.52;;;-0.06;100.00
35291;BME280;21411;50.024;19.220;2023-11-22T11:51:34;99902.45;;;-0.06;100.00
35291;BME280;21411;50.024;19.220;2023-11-22T11:54:01;99906.46;;;-0.07;100.00
35291;BME280;21411;50.024;19.220;2023-11-22T11:56:28;99909.42;;;-0.05;100.00
35291;BME280;21411;50.024;19.220;2023-11-22T11:58:56;99911.48;;;-0.02;100.00
35291;BME280;21411;50.024;19.220;2023-11-22T12:01:28;99907.46;;;-0.00;100.00
35291;BME280;21411;50.024;19.220;2023-11-22T12:03:56;99904.17;;;-0.04;100.00
35291;BME280;21411;50.024;19.220;2023-11-22T12:06:22;99902.59;;;-0.03;100.00
35291;BME280;21411;50.024;19.220;2023-11-22T12:08:49;99902.55;;;0.01;100.00
35291;BME280;21411;50.024;19.220;2023-11-22T12:11:15;99908.47;;;0.04;100.00
35291;BME280;21411;50.024;19.220;2023-11-22T12:13:44;99907.61;;;0.04;100.00
35291;BME280;21411;50.024;19.220;2023-11-22T12:16:15;99900.95;;;0.04;100.00
35291;BME280;21411;50.024;19.220;2023-11-22T12:18:45;99897.63;;;0.04;100.00
35291;BME280;21411;50.024;19.220;2023-11-22T12:21:12;99900.44;;;0.02;100.00
35291;BME280;21411;50.024;19.220;2023-11-22T12:23:42;99901.84;;;0.03;100.00
35291;BME280;21411;50.024;19.220;2023-11-22T12:26:11;99897.63;;;0.04;100.00
35291;BME280;21411;50.024;19.220;2023-11-22T12:28:40;99896.92;;;0.06;100.00
35291;BME280;21411;50.024;19.220;2023-11-22T12:33:36;99906.10;;;0.13;100.00
35291;BME280;21411;50.024;19.220;2023-11-22T12:36:04;99905.41;;;0.12;100.00
35291;BME280;21411;50.024;19.220;2023-11-22T12:38:31;99905.06;;;0.12;100.00
35291;BME280;21411;50.024;19.220;2023-11-22T12:40:58;99902.83;;;0.11;100.00
35291;BME280;21411;50.024;19.220;2023-11-22T12:43:25;99897.40;;;0.10;100.00
35291;BME280;21411;50.024;19.220;2023-11-22T12:46:02;99894.63;;;0.08;100.00
35291;BME280;21411;50.024;19.220;2023-11-22T12:48:29;99905.30;;;0.06;100.00
35291;BME280;21411;50.024;19.220;2023-11-22T12:50:56;99909.67;;;0.05;100.00
35291;BME280;21411;50.024;19.220;2023-11-22T12:53:24;99910.88;;;0.07;100.00